Time;durP1;ratioP1;P1;durP2;ratioP2;P2;SDS_P1;SDS_P2;PMS_P1;PMS_P2;Temp;Humidity;BMP_temperature;BMP_pressure;BME280_temperature;BME280_humidity;BME280_pressure;Samples;Min_cycle;Max_cycle;Signal;HPM_P1;HPM_P2
2023/08/04 16:45:43;;;;;;;4.00;1.90;;;23.00;99.90;;;;;;5109148;27;20575;-62
2023/08/04 16:48:09;;;;;;;2.17;2.07;;;22.90;99.90;;;;;;5098365;28;20472;-61
2023/08/04 16:50:36;;;;;;;2.10;2.00;;;23.00;99.90;;;;;;5096965;28;20495;-57
2023/08/04 16:53:03;;;;;;;1.87;1.77;;;23.00;99.90;;;;;;5099312;28;20444;-64
2023/08/04 16:55:32;;;;;;;1.80;1.70;;;23.10;99.90;;;;;;5096919;28;20454;-63
2023/08/04 16:58:01;;;;;;;2.30;1.60;;;23.10;99.90;;;;;;5098205;28;20525;-64
2023/08/04 17:00:28;;;;;;;2.37;2.03;;;23.20;99.90;;;;;;5101066;28;20862;-62
2023/08/04 17:02:57;;;;;;;1.90;1.80;;;23.20;99.90;;;;;;5100054;28;20488;-61
2023/08/04 17:05:23;;;;;;;1.83;1.53;;;23.20;99.90;;;;;;5096800;28;20510;-64
2023/08/04 17:07:50;;;;;;;3.83;2.00;;;23.30;99.90;;;;;;5096942;28;20462;-63
2023/08/04 17:10:17;;;;;;;2.23;2.13;;;23.30;99.90;;;;;;5099659;28;20465;-63
2023/08/04 17:12:44;;;;;;;2.63;2.00;;;23.40;99.90;;;;;;5100517;28;20815;-62
2023/08/04 17:15:11;;;;;;;2.93;2.00;;;23.40;99.90;;;;;;5097751;28;20865;-64
2023/08/04 17:17:38;;;;;;;2.30;2.20;;;23.50;99.90;;;;;;5096688;28;20482;-65
2023/08/04 17:20:08;;;;;;;2.57;1.50;;;23.50;99.90;;;;;;5097660;28;20462;-65
2023/08/04 17:22:35;;;;;;;3.03;2.43;;;23.50;99.90;;;;;;5099537;28;20449;-64
2023/08/04 17:25:02;;;;;;;1.90;1.30;;;23.50;99.90;;;;;;5098646;28;20852;-62
2023/08/04 17:27:29;;;;;;;1.50;1.50;;;23.60;99.90;;;;;;5096478;28;20453;-64
2023/08/04 17:29:57;;;;;;;1.33;1.23;;;23.60;99.90;;;;;;5096265;28;20474;-62
2023/08/04 17:32:25;;;;;;;3.03;2.50;;;23.60;99.90;;;;;;5099921;28;20979;-62
2023/08/04 17:34:52;;;;;;;3.40;1.67;;;23.60;99.90;;;;;;5099782;28;20496;-62
2023/08/04 17:37:20;;;;;;;2.30;2.10;;;23.70;99.90;;;;;;5096285;28;20512;-61
2023/08/04 17:39:47;;;;;;;1.90;1.70;;;23.70;99.90;;;;;;5095942;28;21018;-62
2023/08/04 17:42:14;;;;;;;3.43;3.23;;;23.70;99.90;;;;;;5098591;28;20874;-62
2023/08/04 17:44:41;;;;;;;1.50;1.47;;;23.70;99.90;;;;;;5099611;28;20519;-62
2023/08/04 17:47:08;;;;;;;1.80;1.70;;;23.70;99.90;;;;;;5097937;28;20437;-62
2023/08/04 17:49:35;;;;;;;3.77;1.50;;;23.70;99.90;;;;;;5095804;28;20442;-60
2023/08/04 17:52:02;;;;;;;2.67;1.60;;;23.70;99.90;;;;;;5096708;28;20883;-61
2023/08/04 17:54:30;;;;;;;1.80;1.70;;;23.70;99.90;;;;;;5100739;28;20482;-59
2023/08/04 17:56:59;;;;;;;1.60;1.57;;;23.70;99.90;;;;;;5084225;28;20469;-64
2023/08/04 17:59:26;;;;;;;2.17;2.00;;;23.70;99.90;;;;;;5077817;28;20457;-64
2023/08/04 18:01:53;;;;;;;1.53;1.37;;;23.70;99.90;;;;;;5086075;28;20474;-62
2023/08/04 18:04:21;;;;;;;1.83;1.73;;;23.80;99.90;;;;;;5082751;28;20517;-63
2023/08/04 18:06:48;;;;;;;1.90;1.90;;;23.80;99.90;;;;;;5085745;28;20443;-62
2023/08/04 18:09:15;;;;;;;1.90;1.70;;;23.70;99.90;;;;;;5082987;28;20485;-63
2023/08/04 18:11:43;;;;;;;1.53;1.43;;;23.80;99.90;;;;;;5082045;28;20471;-62
2023/08/04 18:14:10;;;;;;;2.10;2.00;;;23.80;99.90;;;;;;5083857;28;20514;-62
2023/08/04 18:16:38;;;;;;;1.93;1.83;;;23.80;99.90;;;;;;5085799;28;20448;-60
2023/08/04 18:19:05;;;;;;;1.90;1.80;;;23.80;99.90;;;;;;5085036;28;20439;-61
2023/08/04 18:21:32;;;;;;;2.70;1.90;;;23.80;99.90;;;;;;5083006;28;20501;-58
2023/08/04 18:23:59;;;;;;;2.73;2.07;;;23.80;99.90;;;;;;5084012;28;20494;-59
2023/08/04 18:26:26;;;;;;;1.37;1.27;;;23.80;99.90;;;;;;5081001;28;20466;-60
2023/08/04 18:28:54;;;;;;;2.23;2.03;;;23.80;99.90;;;;;;5094177;28;20454;-61
2023/08/04 18:31:21;;;;;;;1.90;1.80;;;23.80;99.90;;;;;;5085520;28;20469;-60
2023/08/04 18:33:48;;;;;;;1.70;1.60;;;23.80;99.90;;;;;;5086160;28;21003;-61
2023/08/04 18:36:15;;;;;;;1.90;1.80;;;23.80;99.90;;;;;;5073231;28;20466;-65
2023/08/04 18:38:42;;;;;;;1.90;1.70;;;23.80;99.90;;;;;;5080971;28;20510;-63
2023/08/04 18:41:09;;;;;;;2.00;1.90;;;23.80;99.90;;;;;;5087077;28;20450;-67
2023/08/04 18:43:36;;;;;;;1.80;1.70;;;23.80;99.90;;;;;;5076577;28;20508;-66
2023/08/04 18:46:06;;;;;;;1.90;1.83;;;23.80;99.90;;;;;;5090007;28;21081;-62
2023/08/04 18:48:33;;;;;;;4.00;2.33;;;23.80;99.90;;;;;;5081318;28;20945;-53
2023/08/04 18:51:00;;;;;;;1.80;1.70;;;23.80;99.90;;;;;;5071692;28;20950;-57
2023/08/04 18:53:27;;;;;;;1.70;1.60;;;23.80;99.90;;;;;;5081013;28;20446;-58
2023/08/04 18:55:54;;;;;;;2.20;2.10;;;23.90;99.90;;;;;;5081037;28;20514;-61
2023/08/04 18:58:21;;;;;;;1.93;1.83;;;23.90;99.90;;;;;;5084063;28;20450;-59
2023/08/04 19:00:48;;;;;;;2.73;1.57;;;23.80;99.90;;;;;;5083792;28;20489;-57
2023/08/04 19:03:16;;;;;;;2.13;1.80;;;23.90;99.90;;;;;;5082293;28;20449;-57
2023/08/04 19:05:43;;;;;;;1.80;1.70;;;23.90;99.90;;;;;;5080925;28;20483;-59
2023/08/04 19:08:10;;;;;;;1.80;1.70;;;23.90;99.90;;;;;;5079713;28;20475;-58
2023/08/04 19:10:37;;;;;;;1.50;1.47;;;23.80;99.90;;;;;;5083341;28;20484;-62
2023/08/04 19:13:04;;;;;;;2.10;1.73;;;23.90;99.90;;;;;;5084529;28;20525;-57
2023/08/04 19:15:30;;;;;;;1.80;1.70;;;23.80;99.90;;;;;;5084264;28;20516;-60
2023/08/04 19:17:57;;;;;;;1.73;1.50;;;23.90;99.90;;;;;;5084407;28;20988;-60
2023/08/04 19:20:26;;;;;;;2.17;2.00;;;23.90;99.90;;;;;;5077915;28;20512;-62
2023/08/04 19:22:53;;;;;;;2.67;2.47;;;23.90;99.90;;;;;;5081007;28;20478;-63
2023/08/04 19:25:20;;;;;;;1.80;1.70;;;23.90;99.90;;;;;;5083295;28;20930;-63
2023/08/04 19:27:46;;;;;;;2.93;1.93;;;23.90;99.90;;;;;;5077534;28;20455;-63
2023/08/04 19:30:13;;;;;;;1.80;1.70;;;23.90;99.90;;;;;;5080676;28;20454;-60
2023/08/04 19:32:40;;;;;;;2.00;1.90;;;23.90;99.90;;;;;;5080561;28;20478;-63
2023/08/04 19:35:08;;;;;;;1.90;1.80;;;23.80;99.90;;;;;;5081486;28;21037;-58
2023/08/04 19:37:36;;;;;;;2.10;1.97;;;23.90;99.90;;;;;;5089069;28;20470;-63
2023/08/04 19:40:07;;;;;;;2.00;1.63;;;23.90;99.90;;;;;;5079316;28;20452;-68
2023/08/04 19:42:34;;;;;;;2.00;1.90;;;23.90;99.90;;;;;;5085279;28;20449;-57
2023/08/04 19:45:01;;;;;;;1.90;1.77;;;23.90;99.90;;;;;;5083419;28;20478;-56
2023/08/04 19:47:28;;;;;;;1.50;1.50;;;23.90;99.90;;;;;;5080302;28;20926;-58
2023/08/04 19:49:54;;;;;;;2.90;1.63;;;23.80;99.90;;;;;;5082354;28;21038;-59
2023/08/04 19:52:21;;;;;;;4.87;2.30;;;23.80;99.90;;;;;;5082990;28;20867;-58
2023/08/04 19:54:49;;;;;;;1.57;1.47;;;23.80;99.90;;;;;;5080045;28;20906;-58
2023/08/04 19:57:16;;;;;;;1.60;1.50;;;23.70;99.90;;;;;;5082354;28;20471;-59
2023/08/04 19:59:43;;;;;;;1.90;1.50;;;23.70;99.90;;;;;;5082710;28;20478;-59
2023/08/04 20:02:10;;;;;;;5.10;2.07;;;23.70;99.90;;;;;;5082148;28;20481;-59
2023/08/04 20:04:38;;;;;;;1.80;1.70;;;23.60;99.90;;;;;;5079810;28;20506;-57
2023/08/04 20:07:07;;;;;;;3.87;3.60;;;23.60;99.90;;;;;;5080515;28;20442;-57
2023/08/04 20:09:34;;;;;;;1.80;1.70;;;23.60;99.90;;;;;;5082559;28;20474;-59
2023/08/04 20:12:02;;;;;;;2.47;1.87;;;23.50;99.90;;;;;;5083453;28;20489;-59
2023/08/04 20:14:29;;;;;;;1.70;1.60;;;23.50;99.90;;;;;;5071853;28;20479;-59
2023/08/04 20:16:56;;;;;;;1.90;1.80;;;23.50;99.90;;;;;;5079909;28;20479;-58
2023/08/04 20:19:23;;;;;;;1.33;1.33;;;23.40;99.90;;;;;;5079978;28;20509;-57
2023/08/04 20:21:49;;;;;;;2.33;2.00;;;23.40;99.90;;;;;;5079650;28;20443;-58
2023/08/04 20:24:16;;;;;;;2.93;2.67;;;23.40;99.90;;;;;;5081690;28;20487;-58
2023/08/04 20:26:43;;;;;;;2.37;2.27;;;23.40;99.90;;;;;;5082435;28;20553;-60
2023/08/04 20:29:11;;;;;;;3.13;2.00;;;23.30;99.90;;;;;;5081969;28;20470;-59
2023/08/04 20:31:38;;;;;;;2.07;1.90;;;23.30;99.90;;;;;;5079894;28;20479;-61
2023/08/04 20:34:05;;;;;;;2.77;2.07;;;23.30;99.90;;;;;;5079294;28;20502;-60
2023/08/04 20:36:32;;;;;;;2.33;2.10;;;23.30;99.90;;;;;;5083039;28;20434;-57
2023/08/04 20:38:59;;;;;;;3.20;1.90;;;23.20;99.90;;;;;;5082894;28;20477;-58
2023/08/04 20:41:26;;;;;;;2.20;2.10;;;23.20;99.90;;;;;;5079364;28;20463;-60
2023/08/04 20:43:53;;;;;;;2.50;2.30;;;23.20;99.90;;;;;;5079403;28;20869;-59
2023/08/04 20:46:21;;;;;;;1.60;1.50;;;23.20;99.90;;;;;;5080871;28;20507;-59
2023/08/04 20:48:48;;;;;;;1.93;1.83;;;23.10;99.90;;;;;;5082837;28;20470;-58
2023/08/04 20:51:15;;;;;;;3.80;1.80;;;23.10;99.90;;;;;;5080932;28;20914;-59
2023/08/04 20:53:42;;;;;;;1.90;1.80;;;23.10;99.90;;;;;;5079387;28;20482;-58
2023/08/04 20:56:09;;;;;;;2.13;1.90;;;23.10;99.90;;;;;;5078943;28;20481;-58
2023/08/04 20:58:37;;;;;;;1.60;1.50;;;23.00;99.90;;;;;;5079307;28;20502;-56
2023/08/04 21:01:05;;;;;;;2.40;2.30;;;23.00;99.90;;;;;;5079290;28;20500;-58
2023/08/04 21:03:33;;;;;;;2.10;1.47;;;23.00;99.90;;;;;;5082822;28;20470;-57
2023/08/04 21:06:02;;;;;;;1.90;1.80;;;23.00;99.90;;;;;;5082043;28;20549;-57
2023/08/04 21:08:29;;;;;;;2.17;1.87;;;23.00;99.90;;;;;;5071219;28;20534;-57
2023/08/04 21:10:56;;;;;;;2.20;2.10;;;23.00;99.90;;;;;;5079151;28;20856;-58
2023/08/04 21:13:23;;;;;;;2.17;2.03;;;22.90;99.90;;;;;;5081298;28;20506;-58
2023/08/04 21:15:51;;;;;;;2.63;2.17;;;22.90;99.90;;;;;;5082552;28;20501;-58
2023/08/04 21:18:18;;;;;;;1.53;1.53;;;22.90;99.90;;;;;;5080643;28;20938;-58
2023/08/04 21:20:47;;;;;;;3.10;2.10;;;22.90;99.90;;;;;;5078937;28;20470;-58
2023/08/04 21:23:16;;;;;;;1.93;1.83;;;22.90;99.90;;;;;;5079977;28;20450;-60
2023/08/04 21:25:43;;;;;;;1.67;1.57;;;22.90;99.90;;;;;;5082539;28;20489;-59
2023/08/04 21:28:10;;;;;;;1.40;1.40;;;22.90;99.90;;;;;;5078856;28;20505;-57
2023/08/04 21:30:37;;;;;;;2.00;1.90;;;22.80;99.90;;;;;;5079646;28;20533;-59
2023/08/04 21:33:05;;;;;;;2.13;1.50;;;22.80;99.90;;;;;;5082815;28;20485;-60
2023/08/04 21:35:32;;;;;;;2.00;1.90;;;22.80;99.90;;;;;;5085543;28;20470;-57
2023/08/04 21:38:00;;;;;;;2.00;1.90;;;22.80;99.90;;;;;;5086237;28;20476;-57
2023/08/04 21:40:27;;;;;;;1.53;1.53;;;22.80;99.90;;;;;;5082605;28;20471;-57
2023/08/04 21:42:54;;;;;;;5.07;2.10;;;22.80;99.90;;;;;;5081366;28;20472;-60
2023/08/04 21:45:21;;;;;;;2.57;1.77;;;22.80;99.90;;;;;;5083406;28;20510;-56
2023/08/04 21:47:48;;;;;;;2.13;2.03;;;22.80;99.90;;;;;;5083175;28;20481;-59
2023/08/04 21:50:16;;;;;;;1.63;1.53;;;22.80;99.90;;;;;;5084258;28;20477;-57
2023/08/04 21:52:43;;;;;;;2.20;2.10;;;22.70;99.90;;;;;;5082505;28;20443;-58
2023/08/04 21:55:11;;;;;;;1.80;1.70;;;22.70;99.90;;;;;;5082954;28;20490;-57
2023/08/04 21:57:38;;;;;;;1.90;1.80;;;22.70;99.90;;;;;;5085965;28;20474;-58
2023/08/04 22:00:12;;;;;;;2.73;2.40;;;22.70;99.90;;;;;;5085018;28;20473;-60
2023/08/04 22:02:39;;;;;;;1.57;1.50;;;22.70;99.90;;;;;;5075305;28;20451;-60
2023/08/04 22:05:06;;;;;;;1.93;1.83;;;22.70;99.90;;;;;;5082175;28;20459;-55
2023/08/04 22:07:33;;;;;;;2.30;2.20;;;22.70;99.90;;;;;;5081473;28;20536;-58
2023/08/04 22:10:00;;;;;;;2.50;2.23;;;22.70;99.90;;;;;;5082050;28;20481;-59
2023/08/04 22:12:28;;;;;;;1.60;1.60;;;22.70;99.90;;;;;;5085220;28;20925;-60
2023/08/04 22:14:57;;;;;;;2.20;2.10;;;22.70;99.90;;;;;;5085482;28;20546;-57
2023/08/04 22:17:24;;;;;;;3.10;2.20;;;22.60;99.90;;;;;;5080506;28;20446;-59
2023/08/04 22:19:51;;;;;;;2.77;2.57;;;22.60;99.90;;;;;;5076371;28;20481;-58
2023/08/04 22:22:17;;;;;;;1.97;1.87;;;22.60;99.90;;;;;;5083558;28;20479;-59
2023/08/04 22:24:44;;;;;;;2.93;2.00;;;22.60;99.90;;;;;;5085370;28;20493;-56
2023/08/04 22:27:11;;;;;;;1.50;1.40;;;22.60;99.90;;;;;;5084432;28;20506;-58
2023/08/04 22:29:39;;;;;;;1.80;1.70;;;22.60;99.90;;;;;;5080917;28;20476;-57
2023/08/04 22:32:07;;;;;;;2.33;1.73;;;22.60;99.90;;;;;;5081757;28;20479;-60
2023/08/04 22:34:34;;;;;;;1.97;1.87;;;22.60;99.90;;;;;;5085028;28;20582;-59
2023/08/04 22:37:01;;;;;;;1.77;1.67;;;22.60;99.90;;;;;;5085075;28;20474;-58
2023/08/04 22:39:27;;;;;;;1.80;1.70;;;22.60;99.90;;;;;;5082023;28;20439;-57
2023/08/04 22:41:54;;;;;;;1.60;1.60;;;22.50;99.90;;;;;;5080651;28;20482;-57
2023/08/04 22:44:21;;;;;;;1.63;1.60;;;22.60;99.90;;;;;;5083340;28;20546;-60
2023/08/04 22:46:49;;;;;;;2.07;1.80;;;22.50;99.90;;;;;;5084832;28;20557;-60
2023/08/04 22:49:16;;;;;;;1.37;1.37;;;22.50;99.90;;;;;;5083498;28;20474;-60
2023/08/04 22:51:43;;;;;;;1.57;1.57;;;22.50;99.90;;;;;;5081232;28;20472;-58
2023/08/04 22:54:10;;;;;;;1.50;1.40;;;22.50;99.90;;;;;;5083121;28;20502;-56
2023/08/04 22:56:37;;;;;;;2.00;1.40;;;22.50;99.90;;;;;;5086514;28;20545;-58
2023/08/04 22:59:04;;;;;;;2.17;1.83;;;22.50;99.90;;;;;;5081474;28;20479;-59
2023/08/04 23:01:30;;;;;;;2.20;2.00;;;22.50;99.90;;;;;;5084130;28;20873;-60
2023/08/04 23:03:59;;;;;;;1.83;1.73;;;22.50;99.90;;;;;;5084674;28;20474;-60
2023/08/04 23:06:25;;;;;;;1.50;1.40;;;22.50;99.90;;;;;;5076053;28;20518;-60
2023/08/04 23:08:52;;;;;;;2.00;1.87;;;22.50;99.90;;;;;;5085060;28;20483;-60
2023/08/04 23:11:19;;;;;;;2.30;1.40;;;22.50;99.90;;;;;;5082368;28;20882;-60
2023/08/04 23:13:46;;;;;;;1.77;1.67;;;22.50;99.90;;;;;;5084352;28;20443;-60
2023/08/04 23:16:13;;;;;;;3.63;1.67;;;22.50;99.90;;;;;;5083450;28;20466;-60
2023/08/04 23:18:40;;;;;;;2.20;1.37;;;22.50;99.90;;;;;;5076913;28;20884;-59
2023/08/04 23:21:08;;;;;;;2.27;2.17;;;22.50;99.90;;;;;;5084069;28;21003;-59
2023/08/04 23:23:36;;;;;;;1.97;1.87;;;22.50;99.90;;;;;;5072794;28;20471;-61
2023/08/04 23:26:03;;;;;;;1.77;1.67;;;22.50;99.90;;;;;;5080815;28;20481;-60
2023/08/04 23:28:30;;;;;;;1.53;1.50;;;22.50;99.90;;;;;;5083729;28;20439;-60
2023/08/04 23:30:57;;;;;;;1.77;1.67;;;22.50;99.90;;;;;;5083318;28;20878;-59
2023/08/04 23:33:24;;;;;;;4.73;1.73;;;22.50;99.90;;;;;;5081905;28;20874;-59
2023/08/04 23:35:52;;;;;;;5.00;2.00;;;22.50;99.90;;;;;;5080499;28;20892;-60
2023/08/04 23:38:21;;;;;;;2.00;1.90;;;22.50;99.90;;;;;;5081941;28;20949;-61
2023/08/04 23:40:47;;;;;;;9.30;2.03;;;22.50;99.90;;;;;;5083811;28;20479;-60
2023/08/04 23:43:15;;;;;;;1.77;1.67;;;22.50;99.90;;;;;;5082133;28;20518;-59
2023/08/04 23:45:42;;;;;;;2.20;1.70;;;22.50;99.90;;;;;;5080241;28;20498;-61
2023/08/04 23:48:09;;;;;;;2.50;2.30;;;22.50;99.90;;;;;;5080379;28;20597;-59
2023/08/04 23:50:35;;;;;;;2.43;2.33;;;22.50;99.90;;;;;;5071932;28;20439;-60
2023/08/04 23:53:02;;;;;;;2.07;1.97;;;22.50;99.90;;;;;;5079799;28;20471;-61
2023/08/04 23:55:31;;;;;;;1.60;1.57;;;22.50;99.90;;;;;;5071147;28;20482;-59
2023/08/04 23:57:57;;;;;;;1.93;1.80;;;22.50;99.90;;;;;;5067151;28;20489;-59
